Red Rock, Pennsylvania
Current Conditions -  °F | °C
As of 9:15 AM on Wednesday 28 Jan 2015 (Local Time) from KHZL Reporting Station
Clear Clear  
Wind Chill:   Ceiling: Unl
Heat Index: 14°   Visibility: 10mi
Dew Point:   Wind: 12mph
Humidity: 57%   Direction: 280°W
Pressure: 30.08"   Gusts: 17mph
Location:  41.2534°N, 76.3299°W
Report Text: KHZL 281415Z AUTO 28010G15KT 10SM CLR M10/M17 A3008 RMK AO2
Loading
Personal Weather Stations






























Interactive Weather Map New forecast layout! Learn more

10-Day Weather Forecast

Advertisements
Track Severe Weather on mobile